Startpagina
METAR-TAF:

METAR-TAF

Vliegvelden :

Bamako, Mali

Luchthaven Bamako

breedte: 12-32N, lengte: 007-57W, hoogte: 380 m

Actueel weer

Dit bericht is 20 minuten geleden gemaakt, om 19:00 UTC
Wind 5 kt uit het noordnoordoosten
Temperatuur 29°C
Vochtigheid 35%
Druk 1014 hPa
Zicht: 8000 m

METAR: GABS 211900Z 02005KT 8000 NSC 29/12 Q1014 NOSIG

Tijdstip: 19:20 (19:20 UTC)

Verwachting

Dit bericht is 2 uur en het 20 minuten geleden gemaakt, om 17:00 UTC
Verwachting geldig van 21 om 18 UTC tot 22 om 24 UTC
Wind 6 kt uit het oostnoordoosten
Zicht 10 km of meer
geen wolken onder 1500 m en geen cumulonimbus
Kans 40% :
Tijdelijke
van 22 om 06 UTC tot 22 om 11 UTC
Zicht: 4000 m
Heiigheid

TAF: GABS 211700Z 2118/2224 06006KT CAVOK PROB40 TEMPO 2206/2211 4000 HZ

Waarnemingen en weersverwachtingen van meer dan 4000 vliegvelden (METAR en TAF).

De beschikbare stations zijn de gele en rode punten op de kaart.

Ga met uw muis naar het station om de naam te zien.

Klik dan om waarnemingen en weersverwachtingen te zien.

kaart wijzigen: klik op de groene knoppen met een zwart kruis om in te zoomen, op de groene knop met een streepje om uit te zoomen of op de groene pijlen voor aangrenzende kaarten.


METAR-TAF: